Time;durP1;ratioP1;P1;durP2;ratioP2;P2;SDS_P1;SDS_P2;PMS_P1;PMS_P2;Temp;Humidity;BMP_temperature;BMP_pressure;BME280_temperature;BME280_humidity;BME280_pressure;Samples;Min_cycle;Max_cycle;Signal;HPM_P1;HPM_P2
2021/09/20 00:00:36;;;;;;;9.93;7.57;;;12.30;99.90;;;;;;2096916;28;20064;-71
2021/09/20 00:01:36;;;;;;;9.48;7.80;;;12.30;99.90;;;;;;2097136;28;20024;-70
2021/09/20 00:02:37;;;;;;;10.88;7.70;;;12.30;99.90;;;;;;2097645;28;20116;-71
2021/09/20 00:03:38;;;;;;;9.98;7.97;;;12.30;99.90;;;;;;2097597;28;20035;-71
2021/09/20 00:04:38;;;;;;;10.80;7.60;;;12.30;99.90;;;;;;2096630;28;20031;-71
2021/09/20 00:05:39;;;;;;;9.15;7.60;;;12.30;99.90;;;;;;2088798;28;20104;-71
2021/09/20 00:06:40;;;;;;;9.88;7.43;;;12.30;99.90;;;;;;2088569;28;20398;-72
2021/09/20 00:07:41;;;;;;;9.43;7.72;;;12.30;99.90;;;;;;2097034;28;20032;-72
2021/09/20 00:08:42;;;;;;;8.68;7.28;;;12.30;99.90;;;;;;2097522;28;20032;-72
2021/09/20 00:09:43;;;;;;;9.73;8.00;;;12.30;99.90;;;;;;2097066;28;20040;-70
2021/09/20 00:10:43;;;;;;;10.60;7.78;;;12.30;99.90;;;;;;2097126;28;20035;-70
2021/09/20 00:11:44;;;;;;;9.63;8.02;;;12.30;99.90;;;;;;2097550;28;20481;-72
2021/09/20 00:12:45;;;;;;;11.50;8.25;;;12.30;99.90;;;;;;2097663;28;20085;-72
2021/09/20 00:13:46;;;;;;;10.18;8.00;;;12.30;99.90;;;;;;2097560;28;20024;-72
2021/09/20 00:14:46;;;;;;;11.50;8.15;;;12.30;99.90;;;;;;2097234;28;20107;-71
2021/09/20 00:15:47;;;;;;;10.80;7.75;;;12.30;99.90;;;;;;2097672;28;20025;-72
2021/09/20 00:16:48;;;;;;;8.82;7.75;;;12.30;99.90;;;;;;2097547;28;20657;-71
2021/09/20 00:17:49;;;;;;;9.30;7.13;;;12.30;99.90;;;;;;2096959;28;20159;-71
2021/09/20 00:18:49;;;;;;;11.07;7.60;;;12.30;99.90;;;;;;2080374;28;20038;-72
2021/09/20 00:19:50;;;;;;;10.45;7.30;;;12.30;99.90;;;;;;2088629;28;20104;-71
2021/09/20 00:20:51;;;;;;;8.85;7.60;;;12.30;99.90;;;;;;2097286;28;20025;-70
2021/09/20 00:21:51;;;;;;;9.38;7.72;;;12.30;99.90;;;;;;2097504;28;20107;-70
2021/09/20 00:22:55;;;;;;;10.32;7.88;;;12.30;99.90;;;;;;2097510;28;20051;-72
2021/09/20 00:23:56;;;;;;;9.32;7.55;;;12.30;99.90;;;;;;2096875;28;20103;-71
2021/09/20 00:24:56;;;;;;;9.13;7.50;;;12.30;99.90;;;;;;2088294;28;20120;-71
2021/09/20 00:25:58;;;;;;;8.80;7.40;;;12.20;99.90;;;;;;2096856;28;20028;-70
2021/09/20 00:26:59;;;;;;;9.38;7.25;;;12.20;99.90;;;;;;2097415;28;20025;-70
2021/09/20 00:28:00;;;;;;;10.48;7.60;;;12.20;99.90;;;;;;2096859;28;20031;-73
2021/09/20 00:29:00;;;;;;;8.52;7.28;;;12.20;99.90;;;;;;2096911;28;20024;-72
2021/09/20 00:30:03;;;;;;;10.15;7.35;;;12.20;99.90;;;;;;2096699;28;20032;-72
2021/09/20 00:31:05;;;;;;;8.55;7.00;;;12.20;99.90;;;;;;2096904;28;20032;-71
2021/09/20 00:32:06;;;;;;;9.60;7.63;;;12.20;99.90;;;;;;2096502;28;20123;-70
2021/09/20 00:33:07;;;;;;;8.70;7.55;;;12.20;99.90;;;;;;2096833;28;20481;-72
2021/09/20 00:34:08;;;;;;;9.18;7.80;;;12.20;99.90;;;;;;2097347;28;20032;-72
2021/09/20 00:35:09;;;;;;;9.70;7.10;;;12.20;99.90;;;;;;2097396;28;20063;-72
2021/09/20 00:36:10;;;;;;;9.50;7.25;;;12.20;99.90;;;;;;2096649;28;20025;-70
2021/09/20 00:37:11;;;;;;;10.32;7.43;;;12.20;99.90;;;;;;2096740;28;20082;-72
2021/09/20 00:38:12;;;;;;;9.60;7.32;;;12.10;99.90;;;;;;2096863;28;20583;-72
2021/09/20 00:39:12;;;;;;;10.15;7.22;;;12.20;99.90;;;;;;2096812;28;20040;-72
2021/09/20 00:40:13;;;;;;;9.55;7.50;;;12.20;99.90;;;;;;2096641;28;20087;-72
2021/09/20 00:41:14;;;;;;;9.98;7.32;;;12.10;99.90;;;;;;2096815;28;20075;-71
2021/09/20 00:42:15;;;;;;;10.45;7.45;;;12.10;99.90;;;;;;2097318;28;20024;-72
2021/09/20 00:43:16;;;;;;;8.45;7.40;;;12.10;99.90;;;;;;2096771;28;20059;-71
2021/09/20 00:44:16;;;;;;;9.70;7.90;;;12.10;99.90;;;;;;2096451;28;20025;-72
2021/09/20 00:45:17;;;;;;;8.80;7.43;;;12.10;99.90;;;;;;2097293;28;20071;-71
2021/09/20 00:46:18;;;;;;;9.23;7.45;;;12.10;99.90;;;;;;2097449;28;20033;-71
2021/09/20 00:47:18;;;;;;;10.55;7.78;;;12.10;99.90;;;;;;2096772;28;20044;-69
2021/09/20 00:48:19;;;;;;;10.10;7.90;;;12.10;99.90;;;;;;2096584;28;20060;-69
2021/09/20 00:49:19;;;;;;;11.52;7.82;;;12.10;99.90;;;;;;2097431;28;20035;-69
2021/09/20 00:50:21;;;;;;;10.27;7.82;;;12.10;99.90;;;;;;2096849;28;20515;-70
2021/09/20 00:51:21;;;;;;;9.05;7.65;;;12.10;99.90;;;;;;2088522;28;20035;-69
2021/09/20 00:52:22;;;;;;;8.90;7.93;;;12.10;99.90;;;;;;2096663;28;20508;-70
2021/09/20 00:53:23;;;;;;;9.98;7.80;;;12.10;99.90;;;;;;2096736;28;20059;-70
2021/09/20 00:54:23;;;;;;;10.10;7.72;;;12.10;99.90;;;;;;2096433;28;20047;-70
2021/09/20 00:55:24;;;;;;;10.38;8.10;;;12.10;99.90;;;;;;2097001;28;20039;-69
2021/09/20 00:56:27;;;;;;;9.45;7.63;;;12.10;99.90;;;;;;2096481;28;20391;-71
2021/09/20 00:57:27;;;;;;;8.70;7.65;;;12.10;99.90;;;;;;2096038;28;20062;-70
2021/09/20 00:58:29;;;;;;;9.40;7.95;;;12.10;99.90;;;;;;2097437;28;20170;-70
2021/09/20 00:59:29;;;;;;;8.68;7.28;;;12.10;99.90;;;;;;2097334;28;20024;-71
2021/09/20 01:00:31;;;;;;;9.88;7.90;;;12.10;99.90;;;;;;2096727;28;20406;-71
2021/09/20 01:01:33;;;;;;;9.82;7.40;;;12.10;99.90;;;;;;2096751;28;20027;-71
2021/09/20 01:02:34;;;;;;;8.18;7.18;;;12.10;99.90;;;;;;2097299;28;20044;-71
2021/09/20 01:03:35;;;;;;;8.95;7.40;;;12.10;99.90;;;;;;2097558;28;20031;-70
2021/09/20 01:04:35;;;;;;;11.75;7.38;;;12.10;99.90;;;;;;2096366;28;20020;-70
2021/09/20 01:05:36;;;;;;;9.55;7.57;;;12.10;99.90;;;;;;2096637;28;20027;-70
2021/09/20 01:06:37;;;;;;;11.65;8.07;;;12.10;99.90;;;;;;2097250;28;20739;-70
2021/09/20 01:07:38;;;;;;;9.27;7.43;;;12.10;99.90;;;;;;2097238;28;20118;-70
2021/09/20 01:08:39;;;;;;;9.90;7.63;;;12.10;99.90;;;;;;2097368;28;20025;-70
2021/09/20 01:09:41;;;;;;;10.52;7.30;;;12.10;99.90;;;;;;2097208;28;20032;-70
2021/09/20 01:10:44;;;;;;;9.07;7.00;;;12.10;99.90;;;;;;2097257;28;20067;-70
2021/09/20 01:11:47;;;;;;;9.18;7.00;;;12.10;99.90;;;;;;2097083;28;20482;-69
2021/09/20 01:12:47;;;;;;;8.27;6.85;;;12.10;99.90;;;;;;2097297;28;20028;-69
2021/09/20 01:13:48;;;;;;;10.27;7.40;;;12.20;99.90;;;;;;2097093;28;20032;-71
2021/09/20 01:14:49;;;;;;;8.32;7.13;;;12.20;99.90;;;;;;2096898;28;20033;-71
2021/09/20 01:15:53;;;;;;;10.18;7.32;;;12.10;99.90;;;;;;2097182;28;20032;-70
2021/09/20 01:16:53;;;;;;;8.85;6.55;;;12.10;99.90;;;;;;2096559;28;20024;-71
2021/09/20 01:17:54;;;;;;;8.98;7.07;;;12.10;99.90;;;;;;2096994;28;20119;-71
2021/09/20 01:18:54;;;;;;;7.80;6.93;;;12.10;99.90;;;;;;2097563;28;20493;-70
2021/09/20 01:19:55;;;;;;;9.38;6.82;;;12.10;99.90;;;;;;2097805;28;20028;-69
2021/09/20 01:20:59;;;;;;;8.82;7.15;;;12.10;99.90;;;;;;2095311;28;20044;-69
2021/09/20 01:22:03;;;;;;;9.48;7.13;;;12.10;99.90;;;;;;2089850;28;20437;-69
2021/09/20 01:23:04;;;;;;;8.55;7.00;;;12.10;99.90;;;;;;2099292;28;20600;-70
2021/09/20 01:24:05;;;;;;;10.45;7.43;;;12.10;99.90;;;;;;2091069;28;20070;-69
2021/09/20 01:25:08;;;;;;;8.98;7.25;;;12.10;99.90;;;;;;2091737;28;20029;-71
2021/09/20 01:26:11;;;;;;;8.27;7.13;;;12.10;99.90;;;;;;2091591;28;20067;-71
2021/09/20 01:27:14;;;;;;;8.77;6.45;;;12.10;99.90;;;;;;2090869;28;20021;-72
2021/09/20 01:28:15;;;;;;;9.18;7.43;;;12.10;99.90;;;;;;2088902;28;20025;-72
2021/09/20 01:29:16;;;;;;;8.82;7.10;;;12.10;99.90;;;;;;2089198;28;20534;-70
2021/09/20 01:30:17;;;;;;;7.97;6.88;;;12.10;99.90;;;;;;2089013;28;20029;-71
2021/09/20 01:31:17;;;;;;;8.98;6.95;;;12.10;99.90;;;;;;2088703;28;20132;-72
2021/09/20 01:32:18;;;;;;;9.02;7.13;;;12.10;99.90;;;;;;2088633;28;20044;-70
2021/09/20 01:33:19;;;;;;;9.27;7.20;;;12.10;99.90;;;;;;2096491;28;20024;-71
2021/09/20 01:34:20;;;;;;;9.02;7.00;;;12.10;99.90;;;;;;2096172;28;20028;-72
2021/09/20 01:35:24;;;;;;;7.68;6.68;;;12.10;99.90;;;;;;2088838;28;20103;-69
2021/09/20 01:36:24;;;;;;;8.68;7.07;;;12.10;99.90;;;;;;2088655;28;20500;-70
2021/09/20 01:37:25;;;;;;;8.80;7.53;;;12.10;99.90;;;;;;2088793;28;20039;-71
2021/09/20 01:38:26;;;;;;;8.07;6.55;;;12.10;99.90;;;;;;2088264;28;20099;-71
2021/09/20 01:39:31;;;;;;;8.32;6.82;;;12.10;99.90;;;;;;2088274;28;20480;-71
2021/09/20 01:40:32;;;;;;;7.85;6.80;;;12.10;99.90;;;;;;2088829;28;20059;-70
2021/09/20 01:41:34;;;;;;;9.05;6.78;;;12.10;99.90;;;;;;2088630;28;20036;-70
2021/09/20 01:42:34;;;;;;;8.13;6.90;;;12.00;99.90;;;;;;2088020;28;20025;-70
2021/09/20 01:43:35;;;;;;;8.77;7.15;;;12.10;99.90;;;;;;2088095;28;20029;-70
2021/09/20 01:44:36;;;;;;;8.65;7.05;;;12.10;99.90;;;;;;2096032;28;20037;-71
2021/09/20 01:45:37;;;;;;;10.10;7.13;;;12.10;99.90;;;;;;2079784;28;20026;-70
2021/09/20 01:46:40;;;;;;;8.27;6.97;;;12.00;99.90;;;;;;2079798;28;20108;-71
2021/09/20 01:47:41;;;;;;;8.68;6.80;;;12.00;99.90;;;;;;2088633;28;20440;-71
2021/09/20 01:48:42;;;;;;;9.13;6.88;;;12.00;99.90;;;;;;2088639;28;20104;-70
2021/09/20 01:49:42;;;;;;;8.75;6.80;;;12.00;99.90;;;;;;2088671;28;20505;-71
2021/09/20 01:50:43;;;;;;;10.57;7.40;;;12.00;99.90;;;;;;2088353;28;20064;-70
2021/09/20 01:51:45;;;;;;;8.20;6.90;;;12.10;99.90;;;;;;2087943;28;20063;-70
2021/09/20 01:52:46;;;;;;;7.65;6.38;;;12.10;99.90;;;;;;2088024;28;20029;-70
2021/09/20 01:53:46;;;;;;;8.40;6.50;;;12.00;99.90;;;;;;2088006;28;20095;-71
2021/09/20 01:54:47;;;;;;;9.32;6.93;;;12.10;99.90;;;;;;2095998;28;20029;-72
2021/09/20 01:55:48;;;;;;;8.18;7.03;;;12.10;99.90;;;;;;2088729;28;20056;-71
2021/09/20 01:56:49;;;;;;;7.85;6.80;;;12.10;99.90;;;;;;2088649;28;20037;-71
2021/09/20 01:57:49;;;;;;;9.25;7.00;;;12.10;99.90;;;;;;2088589;28;20047;-71
2021/09/20 01:58:50;;;;;;;8.77;6.72;;;12.10;99.90;;;;;;2088655;28;20025;-71
2021/09/20 01:59:51;;;;;;;9.27;6.78;;;12.10;99.90;;;;;;2088682;28;20417;-73
2021/09/20 02:00:51;;;;;;;8.75;7.00;;;12.00;99.90;;;;;;2088479;28;20028;-72
2021/09/20 02:01:52;;;;;;;9.18;6.30;;;12.00;99.90;;;;;;2088548;28;20355;-72
2021/09/20 02:02:53;;;;;;;8.38;6.78;;;12.10;99.90;;;;;;2088588;28;20035;-73
2021/09/20 02:03:54;;;;;;;8.63;6.97;;;12.00;99.90;;;;;;2088069;28;20494;-71
2021/09/20 02:04:54;;;;;;;8.38;6.53;;;12.10;99.90;;;;;;2087748;28;20470;-71
2021/09/20 02:05:55;;;;;;;8.77;6.93;;;12.00;99.90;;;;;;2088687;28;20036;-71
2021/09/20 02:06:55;;;;;;;8.23;6.70;;;12.00;99.90;;;;;;2088644;28;20033;-71
2021/09/20 02:07:56;;;;;;;7.78;6.55;;;12.00;99.90;;;;;;2088588;28;20021;-73
2021/09/20 02:08:57;;;;;;;9.15;6.80;;;12.00;99.90;;;;;;2089413;28;20103;-72
2021/09/20 02:09:57;;;;;;;9.27;6.55;;;12.00;99.90;;;;;;2090345;28;20120;-73
2021/09/20 02:10:58;;;;;;;7.80;6.50;;;12.10;99.90;;;;;;2089641;28;20082;-72
2021/09/20 02:11:59;;;;;;;8.75;6.78;;;12.00;99.90;;;;;;2089636;28;20029;-72
2021/09/20 02:12:59;;;;;;;10.13;6.93;;;12.10;99.90;;;;;;2090251;28;20071;-72
2021/09/20 02:14:00;;;;;;;8.55;6.78;;;12.10;99.90;;;;;;2090274;28;20039;-72
2021/09/20 02:15:02;;;;;;;10.48;6.45;;;12.10;99.90;;;;;;2090079;28;20025;-72
2021/09/20 02:16:03;;;;;;;8.43;7.22;;;12.10;99.90;;;;;;2090132;28;20394;-72
2021/09/20 02:17:04;;;;;;;11.25;7.13;;;12.10;99.90;;;;;;2090348;28;20121;-71
2021/09/20 02:18:04;;;;;;;9.82;7.50;;;12.10;99.90;;;;;;2090068;28;20032;-73
2021/09/20 02:19:05;;;;;;;8.95;7.28;;;12.10;99.90;;;;;;2090317;28;20029;-71
2021/09/20 02:20:07;;;;;;;10.18;7.25;;;12.10;99.90;;;;;;2089499;28;20025;-71
2021/09/20 02:21:09;;;;;;;9.90;6.88;;;12.10;99.90;;;;;;2089414;28;20394;-71
2021/09/20 02:22:10;;;;;;;8.90;6.88;;;12.10;99.90;;;;;;2090062;28;20447;-71
2021/09/20 02:23:12;;;;;;;9.57;7.00;;;12.10;99.90;;;;;;2090156;28;20036;-69
2021/09/20 02:24:12;;;;;;;9.30;7.28;;;12.00;99.90;;;;;;2097852;28;20020;-70
2021/09/20 02:25:13;;;;;;;10.20;6.82;;;12.00;99.90;;;;;;2097547;28;20425;-70
2021/09/20 02:26:14;;;;;;;9.23;6.70;;;12.00;99.90;;;;;;2090146;28;20108;-70
2021/09/20 02:27:15;;;;;;;9.25;6.63;;;12.10;99.90;;;;;;2090128;28;20021;-70
2021/09/20 02:28:16;;;;;;;7.78;6.57;;;12.00;99.90;;;;;;2090130;28;20036;-70
2021/09/20 02:29:17;;;;;;;9.32;6.35;;;12.00;99.90;;;;;;2090144;28;20029;-70
2021/09/20 02:30:17;;;;;;;9.48;6.75;;;12.00;99.90;;;;;;2089499;28;20025;-70
2021/09/20 02:31:19;;;;;;;9.15;6.85;;;12.00;99.90;;;;;;2089380;28;20071;-70
2021/09/20 02:32:19;;;;;;;8.20;6.47;;;12.00;99.90;;;;;;2089448;28;20028;-70
2021/09/20 02:33:20;;;;;;;8.88;6.60;;;12.00;99.90;;;;;;2089478;28;20115;-70
2021/09/20 02:34:20;;;;;;;8.40;6.40;;;12.00;99.90;;;;;;2089798;28;20025;-70
2021/09/20 02:35:21;;;;;;;7.45;6.18;;;12.00;99.90;;;;;;2097874;28;20021;-70
2021/09/20 02:36:22;;;;;;;7.65;6.47;;;12.00;99.90;;;;;;2089365;28;20029;-71
2021/09/20 02:37:23;;;;;;;8.38;6.57;;;11.90;99.90;;;;;;2089508;28;20406;-70
2021/09/20 02:38:23;;;;;;;7.82;6.10;;;11.90;99.90;;;;;;2090243;28;20107;-70
2021/09/20 02:39:24;;;;;;;6.82;6.07;;;11.90;99.90;;;;;;2089411;28;20064;-71
2021/09/20 02:40:25;;;;;;;11.63;7.57;;;11.90;99.90;;;;;;2089465;28;20079;-71
2021/09/20 02:41:26;;;;;;;9.88;6.30;;;11.90;99.90;;;;;;2090199;28;20112;-71
2021/09/20 02:42:26;;;;;;;8.50;6.60;;;11.90;99.90;;;;;;2089912;28;20086;-71
2021/09/20 02:43:27;;;;;;;8.70;6.43;;;11.90;99.90;;;;;;2090004;28;20021;-71
2021/09/20 02:44:28;;;;;;;7.03;6.25;;;11.90;99.90;;;;;;2089333;28;20030;-71
2021/09/20 02:45:29;;;;;;;7.22;6.40;;;12.00;99.90;;;;;;2089349;28;20474;-71
2021/09/20 02:46:30;;;;;;;7.72;6.50;;;11.90;99.90;;;;;;2089430;28;20429;-71
2021/09/20 02:47:30;;;;;;;8.90;7.05;;;12.00;99.90;;;;;;2090007;28;20029;-71
2021/09/20 02:48:31;;;;;;;9.45;7.00;;;12.00;99.90;;;;;;2090074;28;20470;-71
2021/09/20 02:49:32;;;;;;;9.57;6.72;;;12.00;99.90;;;;;;2090061;28;20029;-72
2021/09/20 02:50:33;;;;;;;8.05;6.65;;;12.00;99.90;;;;;;2097440;28;20028;-70
2021/09/20 02:51:38;;;;;;;8.15;6.18;;;12.00;99.90;;;;;;2097728;28;20938;-70
2021/09/20 02:52:39;;;;;;;7.82;6.53;;;12.00;99.90;;;;;;2090026;28;20052;-70
2021/09/20 02:53:40;;;;;;;7.78;6.07;;;12.00;99.90;;;;;;2089466;28;20029;-71
2021/09/20 02:54:40;;;;;;;8.85;6.88;;;12.00;99.90;;;;;;2088811;28;20036;-71
2021/09/20 02:55:41;;;;;;;8.15;6.65;;;11.90;99.90;;;;;;2089255;28;20028;-70
2021/09/20 02:56:42;;;;;;;8.88;6.45;;;11.90;99.90;;;;;;2089852;28;20090;-71
2021/09/20 02:57:43;;;;;;;7.25;6.45;;;12.00;99.90;;;;;;2089972;28;20120;-70
2021/09/20 02:58:43;;;;;;;7.93;6.70;;;11.90;99.90;;;;;;2090069;28;20029;-69
2021/09/20 02:59:44;;;;;;;8.20;6.70;;;12.00;99.90;;;;;;2090047;28;20021;-69
2021/09/20 03:00:45;;;;;;;8.88;6.47;;;11.90;99.90;;;;;;2089891;28;20029;-69
2021/09/20 03:01:45;;;;;;;9.50;6.90;;;11.90;99.90;;;;;;2089973;28;20033;-69
2021/09/20 03:02:46;;;;;;;10.00;7.18;;;11.90;99.90;;;;;;2089912;28;20097;-69
2021/09/20 03:03:46;;;;;;;9.98;6.95;;;11.90;99.90;;;;;;2089644;28;20025;-69
2021/09/20 03:04:47;;;;;;;8.38;6.65;;;11.90;99.90;;;;;;2089251;28;20036;-69
2021/09/20 03:05:48;;;;;;;8.32;6.70;;;11.90;99.90;;;;;;2090035;28;20035;-69
2021/09/20 03:06:48;;;;;;;7.30;6.32;;;11.90;99.90;;;;;;2090175;28;20059;-70
2021/09/20 03:07:49;;;;;;;9.98;6.78;;;11.90;99.90;;;;;;2089766;28;20108;-69
2021/09/20 03:08:49;;;;;;;7.05;6.30;;;11.90;99.90;;;;;;2090009;28;20083;-69
2021/09/20 03:09:50;;;;;;;7.55;6.28;;;11.90;99.90;;;;;;2089896;28;20033;-69
2021/09/20 03:10:51;;;;;;;7.57;6.15;;;11.90;99.90;;;;;;2089944;28;20036;-69
2021/09/20 03:11:51;;;;;;;8.00;6.45;;;11.90;99.90;;;;;;2089001;28;20083;-69
2021/09/20 03:12:52;;;;;;;8.10;6.40;;;11.90;99.90;;;;;;2089276;28;20024;-69
2021/09/20 03:13:52;;;;;;;8.13;6.47;;;11.90;99.90;;;;;;2089892;28;20060;-69
2021/09/20 03:14:53;;;;;;;8.02;6.50;;;11.90;99.90;;;;;;2089545;28;20527;-69
2021/09/20 03:15:54;;;;;;;9.68;6.40;;;11.80;99.90;;;;;;2089857;28;20037;-69
2021/09/20 03:16:54;;;;;;;10.23;7.30;;;11.80;99.90;;;;;;2089676;28;20041;-70
2021/09/20 03:17:55;;;;;;;8.45;6.95;;;11.80;99.90;;;;;;2089654;28;20079;-70
2021/09/20 03:18:56;;;;;;;10.30;6.82;;;11.80;99.90;;;;;;2089798;28;20021;-69
2021/09/20 03:19:58;;;;;;;9.27;6.93;;;11.80;99.90;;;;;;2089760;28;20558;-69
2021/09/20 03:20:59;;;;;;;8.85;6.80;;;11.80;99.90;;;;;;2096725;28;20017;-69
2021/09/20 03:22:00;;;;;;;8.52;6.85;;;11.80;99.90;;;;;;2097336;28;20502;-69
2021/09/20 03:23:01;;;;;;;7.90;6.45;;;11.80;99.90;;;;;;2089322;28;20037;-69
2021/09/20 03:24:02;;;;;;;7.80;6.25;;;11.80;99.90;;;;;;2089124;28;20032;-69
2021/09/20 03:25:04;;;;;;;7.75;6.38;;;11.80;99.90;;;;;;2089442;28;20035;-69
2021/09/20 03:26:05;;;;;;;7.78;6.75;;;11.80;99.90;;;;;;2089772;28;20028;-69
2021/09/20 03:27:06;;;;;;;9.00;6.63;;;11.80;99.90;;;;;;2089549;28;20033;-69
2021/09/20 03:28:07;;;;;;;7.85;6.00;;;11.80;99.90;;;;;;2089807;28;20025;-70
2021/09/20 03:29:08;;;;;;;7.00;6.30;;;11.80;99.90;;;;;;2097625;28;20040;-69
2021/09/20 03:30:10;;;;;;;7.10;6.22;;;11.80;99.90;;;;;;2097749;28;20029;-69
2021/09/20 03:31:10;;;;;;;7.43;6.50;;;11.80;99.90;;;;;;2089130;28;20025;-70
2021/09/20 03:32:11;;;;;;;8.35;6.75;;;11.80;99.90;;;;;;2088867;28;20024;-70
2021/09/20 03:33:12;;;;;;;7.82;6.57;;;11.80;99.90;;;;;;2080916;28;20111;-70
2021/09/20 03:34:12;;;;;;;8.45;6.70;;;11.80;99.90;;;;;;2089137;28;20163;-70
2021/09/20 03:35:14;;;;;;;8.50;6.00;;;11.80;99.90;;;;;;2089426;28;20033;-70
2021/09/20 03:36:15;;;;;;;7.57;6.18;;;11.80;99.90;;;;;;2089600;28;20040;-70
2021/09/20 03:37:15;;;;;;;7.88;6.70;;;11.80;99.90;;;;;;2089678;28;20021;-70
2021/09/20 03:38:16;;;;;;;8.23;6.28;;;11.80;99.90;;;;;;2091110;28;20452;-70
2021/09/20 03:39:17;;;;;;;7.40;6.30;;;11.80;99.90;;;;;;2100062;28;20041;-69
2021/09/20 03:40:18;;;;;;;8.10;6.38;;;11.80;99.90;;;;;;2099388;28;20100;-69
2021/09/20 03:41:18;;;;;;;8.45;6.35;;;11.80;99.90;;;;;;2091474;28;20025;-68
2021/09/20 03:42:19;;;;;;;7.70;6.45;;;11.80;99.90;;;;;;2091294;28;20029;-69
2021/09/20 03:43:20;;;;;;;7.53;6.43;;;11.80;99.90;;;;;;2092201;28;20029;-70
2021/09/20 03:44:20;;;;;;;7.35;6.50;;;11.80;99.90;;;;;;2091965;28;20047;-71
2021/09/20 03:45:21;;;;;;;7.60;6.35;;;11.80;99.90;;;;;;2089104;28;20510;-71
2021/09/20 03:46:22;;;;;;;6.80;5.90;;;11.80;99.90;;;;;;2089307;28;20525;-70
2021/09/20 03:47:22;;;;;;;9.52;6.63;;;11.80;99.90;;;;;;2090073;28;20438;-70
2021/09/20 03:48:23;;;;;;;8.35;6.30;;;11.80;99.90;;;;;;2089752;28;20029;-70
2021/09/20 03:49:23;;;;;;;7.32;6.32;;;11.80;99.90;;;;;;2089465;28;20068;-70
2021/09/20 03:50:24;;;;;;;8.75;6.43;;;11.80;99.90;;;;;;2089476;28;20053;-70
2021/09/20 03:51:24;;;;;;;7.65;6.38;;;11.80;99.90;;;;;;2097055;28;20556;-70
2021/09/20 03:52:25;;;;;;;8.27;6.43;;;11.80;99.90;;;;;;2096876;28;20056;-71
2021/09/20 03:53:26;;;;;;;8.10;6.57;;;11.80;99.90;;;;;;2097135;28;20055;-73
2021/09/20 03:54:26;;;;;;;7.55;6.22;;;11.80;99.90;;;;;;2096926;28;20024;-71
2021/09/20 03:55:27;;;;;;;8.63;6.50;;;11.80;99.90;;;;;;2089251;28;20607;-71
2021/09/20 03:56:27;;;;;;;8.85;6.03;;;11.70;99.90;;;;;;2089261;28;20403;-72
2021/09/20 03:57:28;;;;;;;8.95;6.75;;;11.80;99.90;;;;;;2089409;28;20390;-72
2021/09/20 03:58:29;;;;;;;9.40;6.47;;;11.70;99.90;;;;;;2089380;28;20027;-73
2021/09/20 03:59:30;;;;;;;7.53;6.15;;;11.80;99.90;;;;;;2089387;28;20021;-72
2021/09/20 04:00:30;;;;;;;7.50;6.30;;;11.70;99.90;;;;;;2088517;28;20525;-72
2021/09/20 04:01:31;;;;;;;8.65;6.70;;;11.80;99.90;;;;;;2088729;28;20108;-71
2021/09/20 04:02:32;;;;;;;8.05;6.43;;;11.70;99.90;;;;;;2089412;28;20386;-72
2021/09/20 04:03:32;;;;;;;8.30;6.28;;;11.70;99.90;;;;;;2088800;28;20029;-72
2021/09/20 04:04:33;;;;;;;8.35;6.10;;;11.70;99.90;;;;;;2088534;28;20546;-70
2021/09/20 04:05:34;;;;;;;7.65;6.50;;;11.70;99.90;;;;;;2089576;28;20028;-71
2021/09/20 04:06:34;;;;;;;7.65;6.43;;;11.80;99.90;;;;;;2089330;28;20405;-73
2021/09/20 04:07:42;;;;;;;9.45;6.90;;;11.70;99.90;;;;;;2089429;28;20678;-72
2021/09/20 04:08:43;;;;;;;8.88;6.72;;;11.80;99.90;;;;;;2089379;28;20025;-72
2021/09/20 04:09:43;;;;;;;10.00;6.90;;;11.80;99.90;;;;;;2089355;28;20100;-72
2021/09/20 04:10:44;;;;;;;8.77;6.70;;;11.70;99.90;;;;;;2089263;28;20033;-72
2021/09/20 04:11:45;;;;;;;8.05;6.90;;;11.70;99.90;;;;;;2089095;28;20043;-73
2021/09/20 04:12:45;;;;;;;10.05;7.40;;;11.70;99.90;;;;;;2089516;28;20033;-70
2021/09/20 04:13:46;;;;;;;10.63;7.25;;;11.70;99.90;;;;;;2089389;28;20482;-72
2021/09/20 04:14:47;;;;;;;9.75;7.10;;;11.70;99.90;;;;;;2088975;28;20029;-72
2021/09/20 04:15:48;;;;;;;11.73;7.30;;;11.70;99.90;;;;;;2089662;28;20040;-72
2021/09/20 04:16:49;;;;;;;13.30;7.50;;;11.70;99.90;;;;;;2089532;28;20528;-72
2021/09/20 04:17:52;;;;;;;10.60;7.63;;;11.70;99.90;;;;;;2090141;28;20036;-72
2021/09/20 04:18:53;;;;;;;11.02;7.63;;;11.70;99.90;;;;;;2089507;28;20029;-72
2021/09/20 04:19:53;;;;;;;11.80;7.13;;;11.70;99.90;;;;;;2089635;28;20124;-72
2021/09/20 04:20:55;;;;;;;9.15;6.80;;;11.70;99.90;;;;;;2089696;28;20025;-72
2021/09/20 04:21:55;;;;;;;8.70;6.82;;;11.70;99.90;;;;;;2089485;28;20028;-72
2021/09/20 04:22:56;;;;;;;8.45;6.53;;;11.70;99.90;;;;;;2090868;28;20417;-71
2021/09/20 04:23:56;;;;;;;8.82;7.10;;;11.70;99.90;;;;;;2082945;28;20022;-72
2021/09/20 04:24:57;;;;;;;8.45;6.85;;;11.60;99.90;;;;;;2091522;28;20029;-72
2021/09/20 04:25:58;;;;;;;8.95;7.03;;;11.70;99.90;;;;;;2094002;28;20052;-72
2021/09/20 04:26:59;;;;;;;9.68;7.13;;;11.70;99.90;;;;;;2090485;28;20052;-72
2021/09/20 04:27:59;;;;;;;8.68;6.55;;;11.70;99.90;;;;;;2089713;28;20037;-73
2021/09/20 04:29:00;;;;;;;8.38;6.75;;;11.60;99.90;;;;;;2089619;28;20032;-73
2021/09/20 04:30:01;;;;;;;7.90;6.45;;;11.60;99.90;;;;;;2089659;28;20080;-73
2021/09/20 04:31:01;;;;;;;7.93;6.38;;;11.60;99.90;;;;;;2088762;28;20043;-72
2021/09/20 04:32:02;;;;;;;7.38;5.97;;;11.60;99.90;;;;;;2088022;28;20043;-71
2021/09/20 04:33:03;;;;;;;7.75;6.65;;;11.60;99.90;;;;;;2088226;28;20382;-73
2021/09/20 04:34:04;;;;;;;7.82;6.05;;;11.70;99.90;;;;;;2089456;28;20329;-72
2021/09/20 04:35:05;;;;;;;7.90;6.63;;;11.60;99.90;;;;;;2088980;28;20112;-73
2021/09/20 04:36:06;;;;;;;7.75;6.40;;;11.60;99.90;;;;;;2089372;28;20446;-72
2021/09/20 04:37:07;;;;;;;7.07;6.30;;;11.60;99.90;;;;;;2088593;28;20036;-72
2021/09/20 04:38:09;;;;;;;8.40;6.38;;;11.60;99.90;;;;;;2088553;28;20033;-71
2021/09/20 04:39:09;;;;;;;8.82;6.28;;;11.60;99.90;;;;;;2088595;28;20049;-72
2021/09/20 04:40:10;;;;;;;7.15;6.22;;;11.60;99.90;;;;;;2089097;28;20498;-72
2021/09/20 04:41:11;;;;;;;9.07;7.05;;;11.60;99.90;;;;;;2088631;28;20028;-72
2021/09/20 04:42:12;;;;;;;8.88;6.80;;;11.60;99.90;;;;;;2088487;28;20033;-72
2021/09/20 04:43:12;;;;;;;8.95;6.50;;;11.60;99.90;;;;;;2089119;28;20029;-71
2021/09/20 04:44:13;;;;;;;10.07;6.95;;;11.60;99.90;;;;;;2088549;28;20029;-72
2021/09/20 04:45:13;;;;;;;8.98;6.78;;;11.60;99.90;;;;;;2079777;28;20032;-72
2021/09/20 04:46:14;;;;;;;8.38;6.78;;;11.60;99.90;;;;;;2088438;28;20033;-69
2021/09/20 04:47:15;;;;;;;10.10;6.85;;;11.60;99.90;;;;;;2089053;28;20029;-70
2021/09/20 04:48:15;;;;;;;8.38;6.90;;;11.70;99.90;;;;;;2088997;28;20033;-68
2021/09/20 04:49:16;;;;;;;9.50;6.53;;;11.60;99.90;;;;;;2089128;28;20052;-71
2021/09/20 04:50:17;;;;;;;8.55;6.57;;;11.60;99.90;;;;;;2089075;28;20033;-68
2021/09/20 04:51:17;;;;;;;8.45;6.70;;;11.60;99.90;;;;;;2089049;28;20036;-69
2021/09/20 04:52:18;;;;;;;9.38;6.55;;;11.60;99.90;;;;;;2088738;28;20511;-69
2021/09/20 04:53:18;;;;;;;9.20;6.90;;;11.60;99.90;;;;;;2089029;28;20039;-68
2021/09/20 04:54:19;;;;;;;7.95;6.50;;;11.60;99.90;;;;;;2088980;28;20033;-68
2021/09/20 04:55:20;;;;;;;7.80;6.03;;;11.60;99.90;;;;;;2088860;28;20071;-72
2021/09/20 04:56:20;;;;;;;9.43;6.70;;;11.60;99.90;;;;;;2096549;28;20051;-73
2021/09/20 04:57:21;;;;;;;10.95;7.00;;;11.70;99.90;;;;;;2096698;28;20028;-72
2021/09/20 04:58:21;;;;;;;12.77;7.45;;;11.60;99.90;;;;;;2096591;28;20032;-72
2021/09/20 04:59:22;;;;;;;8.43;7.10;;;11.60;99.90;;;;;;2088956;28;20108;-72
2021/09/20 05:00:22;;;;;;;9.45;7.07;;;11.60;99.90;;;;;;2089023;28;20056;-72
2021/09/20 05:01:23;;;;;;;9.95;7.07;;;11.60;99.90;;;;;;2088851;28;20560;-71
2021/09/20 05:02:24;;;;;;;9.00;7.32;;;11.60;99.90;;;;;;2089045;28;20032;-73
2021/09/20 05:03:25;;;;;;;10.43;7.30;;;11.60;99.90;;;;;;2088933;28;20064;-73
2021/09/20 05:04:25;;;;;;;11.50;7.20;;;11.60;99.90;;;;;;2089077;28;20024;-71
2021/09/20 05:05:26;;;;;;;9.48;7.20;;;11.60;99.90;;;;;;2088638;28;20062;-73
2021/09/20 05:06:27;;;;;;;9.60;6.70;;;11.60;99.90;;;;;;2088856;28;20032;-73
2021/09/20 05:07:27;;;;;;;10.85;7.45;;;11.60;99.90;;;;;;2088747;28;20070;-72
2021/09/20 05:08:28;;;;;;;13.02;7.68;;;11.60;99.90;;;;;;2089060;28;20013;-73
2021/09/20 05:09:29;;;;;;;10.63;7.40;;;11.60;99.90;;;;;;2088841;28;20070;-73
2021/09/20 05:10:31;;;;;;;10.00;7.40;;;11.50;99.90;;;;;;2088691;28;20032;-74
2021/09/20 05:11:32;;;;;;;11.55;7.72;;;11.60;99.90;;;;;;2088088;28;20074;-73
2021/09/20 05:12:32;;;;;;;11.25;7.85;;;11.60;99.90;;;;;;2088169;28;20025;-73
2021/09/20 05:13:33;;;;;;;11.75;7.13;;;11.60;99.90;;;;;;2096475;28;20029;-74
2021/09/20 05:14:34;;;;;;;9.68;7.47;;;11.60;99.90;;;;;;2096451;28;20032;-72
2021/09/20 05:15:34;;;;;;;12.23;8.05;;;11.60;99.90;;;;;;2096238;28;20401;-73
2021/09/20 05:16:35;;;;;;;10.07;7.40;;;11.60;99.90;;;;;;2088821;28;20111;-73